Time;durP1;ratioP1;P1;durP2;ratioP2;P2;SDS_P1;SDS_P2;PMS_P1;PMS_P2;Temp;Humidity;BMP_temperature;BMP_pressure;BME280_temperature;BME280_humidity;BME280_pressure;Samples;Min_cycle;Max_cycle;Signal;HPM_P1;HPM_P2
2022/03/01 00:00:36;;;;;;;8.00;2.77;;;;;;;6.18;42.83;101498.56;5033878;28;20741;-78
2022/03/01 00:03:02;;;;;;;6.63;2.40;;;;;;;6.16;42.73;101500.53;5034145;28;20026;-78
2022/03/01 00:05:27;;;;;;;5.37;2.53;;;;;;;6.23;43.02;101485.59;5033825;28;20029;-78
2022/03/01 00:07:52;;;;;;;7.53;2.42;;;;;;;5.95;42.73;101487.41;5033930;28;20121;-79
2022/03/01 00:10:19;;;;;;;5.67;2.30;;;;;;;6.04;43.24;101481.19;5033172;28;20040;-79
2022/03/01 00:12:44;;;;;;;8.13;2.97;;;;;;;5.97;43.81;101482.78;5032749;28;20068;-81
2022/03/01 00:15:10;;;;;;;5.80;2.70;;;;;;;6.00;43.68;101484.31;5034458;28;20056;-79
2022/03/01 00:17:35;;;;;;;7.10;2.80;;;;;;;5.91;43.11;101489.53;5035690;28;20030;-79
2022/03/01 00:20:01;;;;;;;6.20;2.63;;;;;;;6.04;43.68;101485.69;5034879;28;20037;-79
2022/03/01 00:22:27;;;;;;;10.20;3.50;;;;;;;6.12;43.28;101491.97;5034904;28;20091;-79
2022/03/01 00:24:52;;;;;;;6.13;2.55;;;;;;;6.06;43.40;101492.59;5035142;28;20037;-79
2022/03/01 00:27:17;;;;;;;6.83;2.60;;;;;;;6.12;43.62;101491.13;5036086;28;20468;-79
2022/03/01 00:29:43;;;;;;;6.37;2.30;;;;;;;6.16;43.40;101484.50;5035597;28;20271;-82
2022/03/01 00:32:10;;;;;;;8.63;2.87;;;;;;;6.28;43.17;101478.75;5036071;28;20053;-79
2022/03/01 00:34:35;;;;;;;8.35;2.90;;;;;;;6.06;43.29;101481.03;5035768;28;20261;-79
2022/03/01 00:37:01;;;;;;;7.40;2.67;;;;;;;5.99;44.23;101482.63;5035796;28;20461;-79
2022/03/01 00:39:26;;;;;;;8.03;2.67;;;;;;;6.05;43.57;101476.69;5038238;28;20503;-79
2022/03/01 00:41:51;;;;;;;8.37;2.97;;;;;;;5.82;43.90;101478.88;5038769;28;20029;-79
2022/03/01 00:44:17;;;;;;;6.40;2.97;;;;;;;5.67;45.16;101470.50;5038990;28;20084;-79
2022/03/01 00:46:42;;;;;;;10.10;3.33;;;;;;;5.87;43.48;101474.78;5038655;28;20116;-80
2022/03/01 00:49:07;;;;;;;6.80;3.37;;;;;;;5.81;43.96;101471.84;5036948;28;20053;-79
2022/03/01 00:51:33;;;;;;;6.47;2.70;;;;;;;6.01;43.74;101464.59;5035683;28;20029;-79
2022/03/01 00:53:59;;;;;;;11.43;2.97;;;;;;;5.90;43.86;101466.50;5037594;28;20092;-78
2022/03/01 00:56:24;;;;;;;8.25;2.75;;;;;;;5.75;44.30;101472.41;5037089;28;20049;-79
2022/03/01 00:58:50;;;;;;;8.73;2.63;;;;;;;5.68;44.72;101466.84;5036912;28;20053;-79
2022/03/01 01:01:15;;;;;;;6.30;2.15;;;;;;;5.54;44.95;101468.19;5037079;28;20384;-79
2022/03/01 01:03:41;;;;;;;6.55;2.72;;;;;;;5.60;44.61;101464.06;5037269;28;20032;-81
2022/03/01 01:06:06;;;;;;;7.37;2.37;;;;;;;5.46;45.22;101461.88;5037377;28;20121;-78
2022/03/01 01:08:33;;;;;;;7.60;3.03;;;;;;;5.55;44.72;101461.00;5036916;28;20265;-78
2022/03/01 01:10:58;;;;;;;5.93;2.65;;;;;;;5.42;44.77;101468.47;5037062;28;20523;-79
2022/03/01 01:13:24;;;;;;;7.07;2.80;;;;;;;5.47;44.95;101464.38;5036181;28;20037;-78
2022/03/01 01:15:50;;;;;;;6.07;2.38;;;;;;;5.36;45.22;101464.59;5036944;28;20479;-79
2022/03/01 01:18:15;;;;;;;11.10;3.03;;;;;;;5.36;45.05;101464.59;5036971;28;20037;-78
2022/03/01 01:20:40;;;;;;;6.97;2.80;;;;;;;5.37;44.89;101463.59;5035432;28;20032;-79
2022/03/01 01:23:06;;;;;;;8.10;3.40;;;;;;;5.32;44.81;101465.00;5036631;28;20071;-84
2022/03/01 01:25:32;;;;;;;7.88;2.65;;;;;;;5.17;45.45;101461.97;5036422;28;20030;-78
2022/03/01 01:28:00;;;;;;;9.07;2.67;;;;;;;5.16;45.58;101466.47;5036794;28;20064;-78
2022/03/01 01:30:28;;;;;;;8.43;3.35;;;;;;;5.10;45.83;101456.34;5036789;28;20045;-79
2022/03/01 01:32:54;;;;;;;8.60;3.50;;;;;;;5.09;45.60;101462.66;5037414;28;20112;-79
2022/03/01 01:35:23;;;;;;;5.15;2.13;;;;;;;5.09;45.48;101462.66;5035713;28;20395;-80
2022/03/01 01:37:49;;;;;;;8.48;2.95;;;;;;;5.09;45.48;101469.84;5035412;28;20034;-81
2022/03/01 01:40:17;;;;;;;6.03;2.47;;;;;;;5.07;45.14;101456.63;5036908;28;20038;-79
2022/03/01 01:42:42;;;;;;;6.88;3.03;;;;;;;5.05;45.08;101463.94;5037916;28;20448;-79
2022/03/01 01:45:09;;;;;;;9.90;3.08;;;;;;;5.08;45.01;101463.66;5038286;28;20034;-80
2022/03/01 01:47:35;;;;;;;7.75;2.22;;;;;;;5.02;44.86;101456.22;5038468;28;20781;-78
2022/03/01 01:50:01;;;;;;;7.22;2.58;;;;;;;5.01;45.17;101453.72;5039175;28;20038;-79
2022/03/01 01:52:26;;;;;;;6.87;2.37;;;;;;;4.99;44.92;101459.19;5037850;28;20088;-79
2022/03/01 01:54:53;;;;;;;7.55;2.35;;;;;;;5.05;44.93;101457.75;5038864;28;20798;-78
2022/03/01 01:57:21;;;;;;;5.47;2.22;;;;;;;5.00;45.05;101460.03;5037088;28;20041;-79
2022/03/01 01:59:48;;;;;;;5.90;2.47;;;;;;;5.05;44.23;101447.06;5039734;28;20072;-79
2022/03/01 02:02:16;;;;;;;7.20;2.40;;;;;;;5.02;44.74;101447.34;5041407;28;20034;-78
2022/03/01 02:04:42;;;;;;;8.45;2.67;;;;;;;5.01;44.56;101438.53;5041575;28;20112;-79
2022/03/01 02:07:09;;;;;;;8.30;2.72;;;;;;;5.01;44.36;101440.34;5039856;28;20025;-78
2022/03/01 02:09:34;;;;;;;7.32;2.60;;;;;;;5.04;44.77;101434.69;5039840;28;20038;-80
2022/03/01 02:12:00;;;;;;;7.15;2.70;;;;;;;4.94;44.80;101433.88;5038308;28;20087;-78
2022/03/01 02:14:26;;;;;;;;;;;;;;;4.96;45.26;101440.78;5037643;28;20068;-79
2022/03/01 02:16:52;;;;;;;7.18;3.03;;;;;;;4.93;44.98;101427.72;5037289;28;19909;-79
2022/03/01 02:19:17;;;;;;;;;;;;;;;4.97;44.65;101425.59;5037779;28;20037;-79
2022/03/01 02:21:47;;;;;;;5.50;2.30;;;;;;;4.92;45.35;101425.19;5037397;28;19970;-80
2022/03/01 02:24:13;;;;;;;8.13;2.80;;;;;;;4.87;46.03;101425.59;5037869;28;20065;-79
2022/03/01 02:26:38;;;;;;;7.95;2.67;;;;;;;4.83;45.57;101418.88;5038315;28;20025;-80
2022/03/01 02:29:03;;;;;;;7.85;2.85;;;;;;;4.97;45.78;101425.59;5040992;28;20055;-79
2022/03/01 02:31:29;;;;;;;6.03;2.40;;;;;;;5.03;44.90;101419.66;5041232;28;20380;-79
2022/03/01 02:33:54;;;;;;;8.00;2.83;;;;;;;5.06;45.00;101420.22;5042848;28;20428;-77
2022/03/01 02:36:19;;;;;;;5.53;2.40;;;;;;;4.83;45.79;101417.06;5039295;28;20026;-78
2022/03/01 02:38:45;;;;;;;5.90;2.50;;;;;;;5.01;45.52;101419.81;5040121;28;20263;-77
2022/03/01 02:41:10;;;;;;;6.30;2.70;;;;;;;4.86;45.60;101405.22;5038016;28;20047;-78
2022/03/01 02:43:35;;;;;;;9.23;2.77;;;;;;;4.95;45.41;101419.56;5041068;28;20328;-78
2022/03/01 02:46:01;;;;;;;6.03;2.73;;;;;;;5.20;44.35;101411.72;5040923;28;20081;-79
2022/03/01 02:48:26;;;;;;;4.83;2.17;;;;;;;5.08;45.41;101420.91;5036779;28;20032;-78
2022/03/01 02:50:51;;;;;;;5.83;2.47;;;;;;;5.03;44.92;101419.66;5035491;28;20330;-79
2022/03/01 02:53:17;;;;;;;7.77;2.93;;;;;;;5.19;45.14;101431.44;5035587;28;20087;-79
2022/03/01 02:55:42;;;;;;;6.77;2.63;;;;;;;5.13;44.73;101418.66;5034253;28;20412;-77
2022/03/01 02:58:07;;;;;;;7.93;2.40;;;;;;;5.15;44.55;101429.22;5034555;28;20084;-78
2022/03/01 03:00:33;;;;;;;9.17;2.97;;;;;;;5.28;44.49;101426.19;5034602;28;20731;-78
2022/03/01 03:02:58;;;;;;;7.40;2.70;;;;;;;5.17;45.17;101432.56;5034227;28;20112;-78
2022/03/01 03:05:24;;;;;;;8.80;2.53;;;;;;;5.21;44.80;101433.94;5034416;28;20306;-78
2022/03/01 03:07:49;;;;;;;7.33;2.97;;;;;;;5.34;44.10;101425.63;5032907;28;20079;-76
2022/03/01 03:10:14;;;;;;;6.67;2.60;;;;;;;5.31;44.09;101429.44;5034335;28;20276;-81
2022/03/01 03:12:40;;;;;;;10.33;3.03;;;;;;;5.26;44.55;101437.03;5034597;28;20038;-80
2022/03/01 03:15:06;;;;;;;;;;;;;;;5.22;45.14;101431.13;5034980;28;20108;-78
2022/03/01 03:17:32;;;;;;;7.90;3.17;;;;;;;5.23;44.84;101422.13;5034151;28;20411;-78
2022/03/01 03:19:57;;;;;;;5.97;2.73;;;;;;;5.29;44.47;101420.72;5035045;28;20033;-79
2022/03/01 03:22:22;;;;;;;6.97;2.13;;;;;;;5.39;44.19;101412.66;5034645;28;20333;-79
2022/03/01 03:24:48;;;;;;;7.07;2.60;;;;;;;5.20;45.00;101413.56;5034671;28;20618;-77
2022/03/01 03:27:13;;;;;;;9.83;3.07;;;;;;;5.21;44.79;101410.75;5034159;28;20032;-77
2022/03/01 03:29:38;;;;;;;6.73;2.67;;;;;;;5.24;44.56;101417.63;5035082;28;20264;-83
2022/03/01 03:32:04;;;;;;;5.50;2.60;;;;;;;5.23;44.17;101407.94;5034449;28;20697;-79
2022/03/01 03:34:29;;;;;;;6.03;2.42;;;;;;;5.26;44.75;101398.78;5034481;28;20025;-78
2022/03/01 03:36:55;;;;;;;6.10;2.17;;;;;;;5.16;44.62;101406.84;5033161;28;20435;-79
2022/03/01 03:39:21;;;;;;;6.43;2.40;;;;;;;5.01;45.28;101401.13;5033071;28;20423;-78
2022/03/01 03:41:47;;;;;;;6.13;2.65;;;;;;;5.18;45.11;101400.38;5034090;28;20260;-78
2022/03/01 03:44:12;;;;;;;7.72;2.80;;;;;;;5.09;44.62;101395.88;5033745;28;20191;-77
2022/03/01 03:46:37;;;;;;;7.73;2.60;;;;;;;5.16;44.63;101393.47;5034611;28;20109;-78
2022/03/01 03:49:05;;;;;;;7.33;2.30;;;;;;;5.12;45.13;101390.25;5034513;28;20057;-79
2022/03/01 03:51:30;;;;;;;8.43;2.95;;;;;;;5.10;45.18;101391.38;5034215;28;20109;-79
2022/03/01 03:53:56;;;;;;;5.53;2.65;;;;;;;5.03;45.51;101383.09;5034165;28;20436;-80
2022/03/01 03:56:21;;;;;;;9.23;3.07;;;;;;;4.98;45.11;101388.06;5035152;28;20385;-79
2022/03/01 03:58:46;;;;;;;6.32;2.85;;;;;;;4.86;45.85;101389.19;5038165;28;20125;-79
2022/03/01 04:01:12;;;;;;;7.53;2.50;;;;;;;5.00;45.53;101391.44;5038922;28;20400;-78
2022/03/01 04:03:37;;;;;;;6.72;2.50;;;;;;;5.17;45.29;101387.16;5035184;28;20025;-80
2022/03/01 04:06:03;;;;;;;6.47;2.37;;;;;;;5.03;45.21;101392.94;5036263;28;20484;-81
2022/03/01 04:08:29;;;;;;;7.85;2.83;;;;;;;4.94;45.64;101388.50;5034428;28;20279;-78
2022/03/01 04:10:56;;;;;;;5.60;2.35;;;;;;;5.07;45.58;101387.16;5034097;28;20041;-79
2022/03/01 04:13:23;;;;;;;10.43;3.33;;;;;;;4.99;45.57;101389.75;5034152;28;20029;-77
2022/03/01 04:15:48;;;;;;;6.78;2.38;;;;;;;5.06;45.34;101390.81;5037800;28;20112;-77
2022/03/01 04:18:13;;;;;;;5.77;2.40;;;;;;;4.93;45.44;101392.16;5037293;28;20067;-76
2022/03/01 04:20:39;;;;;;;7.40;2.73;;;;;;;4.93;45.81;101389.47;5038177;28;20033;-77
2022/03/01 04:23:05;;;;;;;6.18;2.63;;;;;;;5.00;45.25;101388.75;5037478;28;20453;-78
2022/03/01 04:25:30;;;;;;;7.53;2.60;;;;;;;4.79;45.82;101388.09;5036239;28;20064;-78
2022/03/01 04:27:56;;;;;;;6.07;2.88;;;;;;;4.84;45.55;101393.84;5037387;28;20037;-81
2022/03/01 04:30:21;;;;;;;6.00;2.40;;;;;;;4.91;46.04;101400.31;5037480;28;20069;-77
2022/03/01 04:32:46;;;;;;;6.97;2.83;;;;;;;5.06;45.31;101401.50;5037200;28;20033;-79
2022/03/01 04:35:12;;;;;;;7.83;3.00;;;;;;;5.01;45.33;101386.94;5036080;28;20033;-77
2022/03/01 04:37:40;;;;;;;8.35;3.10;;;;;;;5.11;45.44;101395.75;5036018;28;20091;-77
2022/03/01 04:40:08;;;;;;;7.68;2.92;;;;;;;5.02;45.58;101393.94;5035948;28;20033;-78
2022/03/01 04:42:33;;;;;;;8.75;3.20;;;;;;;4.97;45.22;101385.53;5036985;28;20041;-78
2022/03/01 04:44:59;;;;;;;7.88;3.03;;;;;;;4.94;45.30;101397.34;5036899;28;20037;-78
2022/03/01 04:47:25;;;;;;;7.18;2.70;;;;;;;5.14;45.10;101388.28;5036884;28;20037;-79
2022/03/01 04:49:50;;;;;;;6.18;2.63;;;;;;;5.08;45.79;101394.19;5037002;28;20366;-77
2022/03/01 04:52:16;;;;;;;7.22;3.42;;;;;;;5.12;44.80;101394.75;5036558;28;20033;-76
2022/03/01 04:54:41;;;;;;;6.15;3.08;;;;;;;4.97;45.30;101398.88;5036255;28;20034;-77
2022/03/01 04:57:07;;;;;;;7.80;3.20;;;;;;;4.92;45.88;101396.66;5036201;28;20040;-77
2022/03/01 04:59:32;;;;;;;7.95;2.97;;;;;;;4.93;45.80;101392.97;5034565;28;20056;-78
2022/03/01 05:01:58;;;;;;;8.63;3.10;;;;;;;4.96;46.16;101391.84;5035544;28;20033;-77
2022/03/01 05:04:23;;;;;;;6.40;2.43;;;;;;;4.95;45.91;101390.19;5035947;28;20021;-77
2022/03/01 05:06:49;;;;;;;8.07;2.97;;;;;;;5.01;45.73;101394.94;5035502;28;20790;-77
2022/03/01 05:09:14;;;;;;;7.72;2.90;;;;;;;4.90;46.06;101398.59;5035484;28;20025;-77
2022/03/01 05:11:40;;;;;;;10.37;2.77;;;;;;;4.98;45.59;101388.06;5036296;28;20037;-77
2022/03/01 05:14:05;;;;;;;6.75;2.97;;;;;;;4.78;46.63;101389.09;5035890;28;20029;-77
2022/03/01 05:16:30;;;;;;;6.78;2.70;;;;;;;4.85;46.45;101385.69;5035619;28;20038;-78
2022/03/01 05:18:56;;;;;;;8.20;3.23;;;;;;;4.90;46.20;101390.59;5034386;28;20038;-77
2022/03/01 05:21:21;;;;;;;7.57;3.30;;;;;;;4.81;46.08;101392.31;5035250;28;20037;-76
2022/03/01 05:23:47;;;;;;;7.97;2.77;;;;;;;4.67;46.92;101397.25;5035150;28;20037;-77
2022/03/01 05:26:12;;;;;;;7.87;2.60;;;;;;;4.74;46.28;101393.03;5033628;28;20029;-83
2022/03/01 05:28:37;;;;;;;9.63;3.45;;;;;;;4.77;46.40;101395.41;5035191;28;20076;-76
2022/03/01 05:31:03;;;;;;;6.47;2.83;;;;;;;4.61;47.05;101400.50;5033799;28;20408;-77
2022/03/01 05:33:28;;;;;;;7.03;2.83;;;;;;;4.75;46.11;101406.25;5035540;28;20252;-78
2022/03/01 05:35:53;;;;;;;8.05;3.00;;;;;;;4.59;47.07;101403.31;5034273;28;20033;-78
2022/03/01 05:38:19;;;;;;;9.60;2.97;;;;;;;4.59;46.61;101405.13;5034191;28;20025;-78
2022/03/01 05:40:45;;;;;;;7.10;2.83;;;;;;;4.62;46.44;101402.19;5035948;28;20079;-77
2022/03/01 05:43:10;;;;;;;8.45;3.22;;;;;;;4.76;46.24;101409.75;5036208;28;20033;-78
2022/03/01 05:45:35;;;;;;;12.40;3.33;;;;;;;4.58;47.03;101398.13;5035251;28;20021;-76
2022/03/01 05:48:01;;;;;;;7.72;3.20;;;;;;;4.67;46.24;101399.91;5034870;28;20087;-77
2022/03/01 05:50:27;;;;;;;6.87;2.90;;;;;;;4.62;46.37;101399.53;5033172;28;20033;-77
2022/03/01 05:52:53;;;;;;;7.32;2.80;;;;;;;4.60;46.49;101402.34;5033271;28;20079;-76
2022/03/01 05:55:19;;;;;;;10.13;3.05;;;;;;;4.56;46.80;101406.25;5034451;28;20037;-77
2022/03/01 05:57:44;;;;;;;9.80;2.67;;;;;;;4.48;47.17;101400.78;5034441;28;20091;-78
2022/03/01 06:00:13;;;;;;;7.05;3.03;;;;;;;4.52;46.45;101403.03;5034450;28;20036;-77
2022/03/01 06:02:40;;;;;;;8.63;2.88;;;;;;;4.58;46.74;101406.13;5034232;28;20038;-77
2022/03/01 06:05:05;;;;;;;7.50;2.95;;;;;;;4.49;47.00;101407.78;5034987;28;20091;-77
2022/03/01 06:07:31;;;;;;;9.35;3.65;;;;;;;4.38;47.60;101402.63;5034195;28;20439;-78
2022/03/01 06:09:56;;;;;;;7.60;3.00;;;;;;;4.57;47.32;101404.44;5034103;28;20120;-76
2022/03/01 06:12:21;;;;;;;7.90;3.03;;;;;;;4.50;46.88;101402.31;5034265;28;20030;-77
2022/03/01 06:14:47;;;;;;;8.27;3.07;;;;;;;4.45;47.04;101414.44;5032735;28;20079;-76
2022/03/01 06:17:12;;;;;;;14.10;4.90;;;;;;;4.44;47.11;101405.56;5033011;28;20034;-78
2022/03/01 06:19:37;;;;;;;8.70;2.73;;;;;;;4.50;46.87;101406.81;5034000;28;20468;-77
2022/03/01 06:22:05;;;;;;;6.95;2.78;;;;;;;4.43;47.22;101401.22;5033799;28;20025;-77
2022/03/01 06:24:30;;;;;;;10.73;3.22;;;;;;;4.40;47.31;101404.16;5032863;28;20061;-77
2022/03/01 06:26:56;;;;;;;13.40;3.80;;;;;;;4.50;47.39;101394.31;5035399;28;20068;-80
2022/03/01 06:29:21;;;;;;;8.67;3.57;;;;;;;4.50;47.56;101405.00;5036258;28;20037;-77
2022/03/01 06:31:47;;;;;;;8.00;3.87;;;;;;;4.60;46.83;101407.66;5034259;28;20033;-78
2022/03/01 06:34:12;;;;;;;5.67;2.77;;;;;;;4.54;46.83;101403.72;5034566;28;20750;-80
2022/03/01 06:36:37;;;;;;;9.47;3.33;;;;;;;4.51;46.71;101412.00;5034750;28;20105;-79
2022/03/01 06:39:03;;;;;;;7.43;3.07;;;;;;;4.51;46.88;101403.16;5035105;28;20268;-78
2022/03/01 06:41:28;;;;;;;7.60;2.80;;;;;;;4.60;46.62;101414.84;5034711;28;20479;-81
2022/03/01 06:43:54;;;;;;;8.10;3.23;;;;;;;4.66;46.87;101414.28;5034844;28;20464;-78
2022/03/01 06:46:20;;;;;;;7.47;3.00;;;;;;;4.62;47.18;101418.22;5034580;28;20102;-78
2022/03/01 06:48:46;;;;;;;8.82;3.75;;;;;;;4.56;46.89;101416.94;5034509;28;20704;-77
2022/03/01 06:51:12;;;;;;;8.15;3.42;;;;;;;4.70;46.04;101426.31;5035113;28;20117;-79
2022/03/01 06:53:37;;;;;;;8.83;3.57;;;;;;;4.63;46.12;101431.41;5033950;28;20055;-79
2022/03/01 06:56:03;;;;;;;9.98;3.55;;;;;;;4.58;46.54;101425.66;5034334;28;20037;-79
2022/03/01 06:58:29;;;;;;;8.50;3.00;;;;;;;4.45;47.53;101425.94;5034753;28;20049;-79
2022/03/01 07:00:56;;;;;;;7.40;3.25;;;;;;;4.57;46.68;101428.47;5033334;28;20044;-80
2022/03/01 07:03:21;;;;;;;8.48;3.22;;;;;;;4.49;46.46;101419.31;5033706;28;20519;-79
2022/03/01 07:05:47;;;;;;;9.50;3.53;;;;;;;4.54;47.22;101419.75;5034989;28;20033;-78
2022/03/01 07:08:13;;;;;;;9.80;3.07;;;;;;;4.57;47.33;101415.94;5035422;28;20088;-80
2022/03/01 07:10:40;;;;;;;8.15;3.20;;;;;;;4.61;46.35;101413.84;5035266;28;20026;-78
2022/03/01 07:13:06;;;;;;;10.50;4.10;;;;;;;4.52;46.18;101411.03;5035146;28;20510;-78
2022/03/01 07:15:33;;;;;;;9.90;2.97;;;;;;;4.51;46.74;101408.50;5034599;28;20029;-77
2022/03/01 07:17:59;;;;;;;9.45;3.55;;;;;;;4.52;47.05;101407.53;5034200;28;20376;-78
2022/03/01 07:20:25;;;;;;;8.25;3.15;;;;;;;4.64;46.76;101402.91;5032592;28;20098;-79
2022/03/01 07:22:50;;;;;;;8.90;3.30;;;;;;;4.64;45.92;101402.91;5035496;28;20044;-79
2022/03/01 07:25:16;;;;;;;8.03;3.23;;;;;;;4.57;46.77;101404.44;5033774;28;20075;-78
2022/03/01 07:27:54;;;;;;;7.53;3.07;;;;;;;4.65;46.68;101407.25;5033772;28;20037;-77
2022/03/01 07:30:24;;;;;;;8.75;2.95;;;;;;;4.63;45.52;101399.38;5033919;28;20032;-79
2022/03/01 07:32:49;;;;;;;5.90;2.60;;;;;;;4.69;45.77;101401.47;5034344;28;20040;-77
2022/03/01 07:35:15;;;;;;;6.75;2.25;;;;;;;4.62;46.29;101408.38;5034025;28;20033;-77
2022/03/01 07:37:40;;;;;;;8.90;3.47;;;;;;;4.70;46.03;101413.81;5034246;28;20457;-79
2022/03/01 07:40:11;;;;;;;9.13;2.83;;;;;;;4.94;45.00;101405.34;5033372;28;20025;-80
2022/03/01 07:42:37;;;;;;;10.25;3.00;;;;;;;4.78;45.57;101421.13;5033339;28;20044;-78
2022/03/01 07:45:03;;;;;;;7.90;3.63;;;;;;;4.94;45.44;101421.38;5034388;28;20108;-78
2022/03/01 07:47:29;;;;;;;7.53;2.95;;;;;;;5.07;44.59;101418.38;5033635;28;20388;-78
2022/03/01 07:49:54;;;;;;;8.35;3.97;;;;;;;4.95;45.08;101425.75;5037772;28;20078;-79
2022/03/01 07:52:20;;;;;;;11.25;4.45;;;;;;;5.10;44.99;101434.13;5037982;28;20036;-79
2022/03/01 07:54:45;;;;;;;7.88;2.95;;;;;;;5.15;43.84;101426.53;5038214;28;20025;-79
2022/03/01 07:57:11;;;;;;;8.40;3.03;;;;;;;5.10;44.43;101418.94;5037255;28;20033;-77
2022/03/01 07:59:36;;;;;;;8.68;3.10;;;;;;;5.28;43.57;101424.38;5037249;28;20392;-79
2022/03/01 08:02:02;;;;;;;8.43;2.73;;;;;;;5.40;43.60;101417.00;5038368;28;20057;-78
2022/03/01 08:04:28;;;;;;;;;;;;;;;5.43;43.25;101422.06;5038818;28;20269;-78
2022/03/01 08:06:53;;;;;;;8.25;3.10;;;;;;;5.35;43.32;101421.97;5039436;28;19913;-79
2022/03/01 08:09:19;;;;;;;8.43;3.27;;;;;;;5.42;43.26;101423.88;5036292;28;20022;-78
2022/03/01 08:11:44;;;;;;;8.48;2.67;;;;;;;5.45;42.29;101433.44;5037825;28;20059;-78
2022/03/01 08:14:09;;;;;;;8.43;2.80;;;;;;;5.49;41.83;101424.16;5037259;28;20032;-77
2022/03/01 08:16:35;;;;;;;8.50;3.20;;;;;;;5.46;41.75;101429.78;5037190;28;20037;-77
2022/03/01 08:19:00;;;;;;;10.10;3.60;;;;;;;5.46;41.85;101435.13;5037165;28;20029;-78
2022/03/01 08:21:25;;;;;;;9.43;2.80;;;;;;;5.47;42.10;101421.63;5037256;28;20029;-79
2022/03/01 08:23:51;;;;;;;9.70;3.03;;;;;;;5.57;42.11;101422.41;5037823;28;20368;-81
2022/03/01 08:26:16;;;;;;;7.67;2.53;;;;;;;5.50;41.85;101426.69;5036105;28;20353;-78
2022/03/01 08:28:42;;;;;;;11.00;3.30;;;;;;;5.58;41.61;101425.91;5036557;28;20388;-77
2022/03/01 08:31:07;;;;;;;7.10;2.72;;;;;;;5.61;41.09;101412.25;5036885;28;20078;-78
2022/03/01 08:33:34;;;;;;;8.55;3.00;;;;;;;5.69;40.42;101419.56;5038122;28;20040;-80
2022/03/01 08:36:01;;;;;;;7.25;2.53;;;;;;;5.95;39.68;101420.53;5037453;28;20116;-79
2022/03/01 08:38:26;;;;;;;6.57;2.60;;;;;;;5.96;40.48;101424.06;5037038;28;20026;-78
2022/03/01 08:40:53;;;;;;;7.95;3.05;;;;;;;6.09;39.94;101420.03;5036528;28;20037;-79
2022/03/01 08:43:18;;;;;;;10.35;3.00;;;;;;;6.09;38.89;101437.94;5037337;28;20037;-78
2022/03/01 08:45:44;;;;;;;7.43;2.97;;;;;;;6.14;38.14;101428.44;5036985;28;20437;-85
2022/03/01 08:48:10;;;;;;;5.68;3.17;;;;;;;6.21;38.60;101429.53;5037011;28;20033;-78
2022/03/01 08:50:35;;;;;;;8.47;2.73;;;;;;;6.33;38.54;101437.31;5038559;28;20036;-79
2022/03/01 08:53:02;;;;;;;6.30;2.92;;;;;;;6.43;37.85;101440.78;5037420;28;20036;-78
2022/03/01 08:55:28;;;;;;;7.65;3.03;;;;;;;6.37;37.62;101439.56;5037045;28;20087;-79
2022/03/01 08:57:53;;;;;;;9.93;2.92;;;;;;;6.46;37.25;101448.47;5038106;28;20025;-79
2022/03/01 09:00:19;;;;;;;10.93;2.92;;;;;;;6.40;37.76;101452.63;5036536;28;20026;-78
2022/03/01 09:02:44;;;;;;;7.32;2.80;;;;;;;6.55;37.67;101448.41;5037799;28;20428;-77
2022/03/01 09:05:10;;;;;;;10.47;3.00;;;;;;;6.59;37.33;101446.28;5037042;28;20400;-79
2022/03/01 09:07:37;;;;;;;7.28;2.35;;;;;;;6.59;37.13;101441.78;5036954;28;20319;-82
2022/03/01 09:10:04;;;;;;;9.18;3.67;;;;;;;6.53;37.32;101445.06;5036075;28;20438;-78
2022/03/01 09:12:29;;;;;;;8.60;3.33;;;;;;;6.61;37.21;101444.31;5037426;28;20038;-77
2022/03/01 09:14:55;;;;;;;7.10;2.80;;;;;;;6.55;37.40;101443.06;5036256;28;20045;-76
2022/03/01 09:17:20;;;;;;;10.40;3.27;;;;;;;6.55;37.43;101463.66;5035267;28;20037;-76
2022/03/01 09:19:45;;;;;;;10.13;2.83;;;;;;;6.68;36.99;101465.94;5033230;28;20269;-77
2022/03/01 09:22:11;;;;;;;6.33;2.87;;;;;;;6.68;37.09;101471.28;5034716;28;20029;-76
2022/03/01 09:24:36;;;;;;;6.97;2.75;;;;;;;6.70;37.32;101464.78;5036379;28;20076;-78
2022/03/01 09:27:02;;;;;;;7.33;3.13;;;;;;;6.81;37.18;101463.69;5036092;28;20121;-79
2022/03/01 09:29:28;;;;;;;;;;;;;;;6.69;37.06;101455.06;5036296;28;20053;-77
2022/03/01 09:31:54;;;;;;;8.85;3.70;;;;;;;6.63;36.87;101438.78;5036710;28;20015;-78
2022/03/01 09:34:20;;;;;;;9.98;3.17;;;;;;;6.62;37.33;101435.28;5036315;28;20025;-77
2022/03/01 09:36:45;;;;;;;7.28;2.90;;;;;;;6.59;37.57;101436.41;5036737;28;20435;-77
2022/03/01 09:39:10;;;;;;;8.57;2.67;;;;;;;6.59;37.90;101441.78;5035308;28;20029;-76
2022/03/01 09:41:37;;;;;;;8.03;3.00;;;;;;;6.50;37.52;101437.31;5035823;28;20083;-78
2022/03/01 09:44:04;;;;;;;8.35;2.72;;;;;;;6.68;36.98;101431.94;5036820;28;20033;-78
2022/03/01 09:46:29;;;;;;;;;;;;;;;6.66;37.94;101425.06;5036800;28;20036;-77
2022/03/01 09:48:55;;;;;;;7.70;2.90;;;;;;;6.58;36.70;101439.25;5035993;28;19917;-82
2022/03/01 09:51:21;;;;;;;9.35;3.22;;;;;;;6.45;37.83;101446.84;5036139;28;20033;-78
2022/03/01 09:53:48;;;;;;;8.23;3.13;;;;;;;6.49;37.08;101451.69;5035636;28;20056;-78
2022/03/01 09:56:16;;;;;;;8.65;3.20;;;;;;;6.59;37.40;101449.81;5035531;28;20096;-78
2022/03/01 09:58:48;;;;;;;6.63;2.08;;;;;;;6.60;36.94;101446.13;5035254;28;20068;-78
2022/03/01 10:01:16;;;;;;;5.47;2.55;;;;;;;6.70;36.97;101443.34;5035094;28;20053;-81
2022/03/01 10:03:41;;;;;;;8.38;2.85;;;;;;;6.78;36.88;101442.59;5035749;28;20029;-79
2022/03/01 10:06:12;;;;;;;10.52;2.85;;;;;;;6.86;37.22;101448.00;5035997;28;20435;-79
2022/03/01 10:08:38;;;;;;;8.45;2.90;;;;;;;7.12;36.62;101450.72;5038920;28;20037;-80
2022/03/01 10:11:04;;;;;;;8.30;3.35;;;;;;;7.09;36.80;101462.59;5036754;28;20037;-79
2022/03/01 10:13:32;;;;;;;8.20;2.90;;;;;;;7.24;36.57;101461.00;5037729;28;20037;-78
2022/03/01 10:16:03;;;;;;;7.25;2.67;;;;;;;7.43;36.66;101462.63;5042658;28;20033;-78
2022/03/01 10:18:34;;;;;;;9.00;3.20;;;;;;;7.58;36.24;101468.22;5039985;28;20025;-81
2022/03/01 10:21:11;;;;;;;9.52;2.88;;;;;;;7.62;35.56;101464.22;5038045;28;20102;-77
2022/03/01 10:23:38;;;;;;;8.18;3.08;;;;;;;7.64;36.29;101464.91;5037845;28;20044;-77
2022/03/01 10:26:21;;;;;;;8.02;2.83;;;;;;;7.82;35.00;101462.16;5035896;28;20025;-78
2022/03/01 10:28:48;;;;;;;8.52;3.00;;;;;;;7.66;36.08;101473.66;5037704;28;20035;-78
2022/03/01 10:31:15;;;;;;;10.10;3.05;;;;;;;7.53;35.87;101465.19;5035027;28;20021;-78
2022/03/01 10:33:52;;;;;;;8.63;2.67;;;;;;;7.60;35.90;101460.88;5036013;28;20033;-78
2022/03/01 10:36:22;;;;;;;7.18;2.80;;;;;;;7.70;35.72;101468.81;5034907;28;20379;-78
2022/03/01 10:39:05;;;;;;;7.70;3.60;;;;;;;7.70;36.85;101466.97;5036038;28;20037;-80
2022/03/01 10:41:34;;;;;;;8.75;2.67;;;;;;;7.85;36.21;101470.72;5035559;28;20083;-78
2022/03/01 10:44:00;;;;;;;6.95;2.95;;;;;;;7.82;36.90;101468.34;5035466;28;20030;-78
2022/03/01 10:46:27;;;;;;;9.40;3.03;;;;;;;7.96;36.24;101469.56;5035654;28;20033;-77
2022/03/01 10:49:02;;;;;;;8.07;3.03;;;;;;;7.78;36.23;101469.66;5033956;28;20078;-77
2022/03/01 10:51:28;;;;;;;7.55;2.17;;;;;;;7.77;36.83;101468.00;5035467;28;20112;-77
2022/03/01 10:53:54;;;;;;;7.30;2.78;;;;;;;8.00;36.76;101462.88;5037845;28;20060;-78
2022/03/01 10:56:19;;;;;;;9.13;3.57;;;;;;;8.08;36.06;101470.09;5038727;28;20034;-77
2022/03/01 10:58:44;;;;;;;7.50;2.47;;;;;;;8.01;36.77;101469.94;5037254;28;20052;-79
2022/03/01 11:01:11;;;;;;;8.98;2.63;;;;;;;8.07;35.92;101474.63;5035843;28;20101;-79
2022/03/01 11:03:38;;;;;;;7.88;2.28;;;;;;;8.05;36.25;101470.47;5035329;28;20051;-77
2022/03/01 11:06:04;;;;;;;;;;;;;;;8.21;36.18;101471.34;5036149;28;20492;-79
2022/03/01 11:08:34;;;;;;;7.40;3.40;;;;;;;8.21;35.75;101459.75;5034765;28;19936;-79
2022/03/01 11:11:02;;;;;;;6.10;2.28;;;;;;;8.20;35.13;101453.56;5036070;28;20456;-79
2022/03/01 11:13:31;;;;;;;7.72;3.30;;;;;;;8.23;34.96;101452.38;5035660;28;20030;-80
2022/03/01 11:16:24;;;;;;;10.75;3.33;;;;;;;8.32;34.67;101452.25;5035715;28;20431;-78
2022/03/01 11:19:11;;;;;;;8.50;2.70;;;;;;;8.53;35.12;101449.09;5035253;28;20030;-78
2022/03/01 11:21:41;;;;;;;9.35;2.75;;;;;;;8.47;35.06;101441.69;5035032;28;20036;-78
2022/03/01 11:24:11;;;;;;;8.40;2.70;;;;;;;8.50;35.61;101435.16;5034913;28;20040;-84
2022/03/01 11:26:38;;;;;;;8.60;3.70;;;;;;;8.41;35.90;101431.63;5033850;28;20033;-78
2022/03/01 11:29:09;;;;;;;8.93;2.85;;;;;;;8.47;36.28;101430.94;5033547;28;20039;-79